Coronel Enrique Soto Cano Air Base
MHSC : now visible

Airfield :











YOU CAN JOIN US ON...

 
LOGIN :

Register | Disclaimer

   EN    FR    IT 

 









Legend :    VFR   Marginal VFR   IFR   Intensive IFR   Very Intensive IFR
Visi :
Ceiling :
>= 8 km
>= 3000ft
5 to 8 km
1000 to 3000 ft
1500m to 5 km
500 to 1000 ft
800 to 1500m
200 to 500 ft
< 800m
< 200 ft
Symbols :   Thunderstorms  Fog  Heavy snow  Heavy precipitations  Wind > 20 kt






- Airport Elevation : 2061 ft
- IATA code : XPL


MHSC - Coronel Enrique Soto Cano Air Base

CURRENT METAR :
  • 271258Z 36010G15KT 9999 SCT030 BKN060 BKN080 23/20 A3008 RMK A02A SLP144 T02280195 $

EXPIRED METARs :
  • 271158Z AUTO 33008KT 9999 FEW032 BKN060 22/20 A3006 RMK AO2 SLP138 T02190203 10226 20195 53009 $

TAF TAF MHSC
Valid from the 27 at 13:00 until the 28 at 19:00 UTC


2713/2819 36010G15KT 9999 SCT030 BKN050 QNH3005INS
BECMG 2715/2716 36012G18KT 9999 SCT050 BKN080 QNH3005INS
TEMPO 2718/2724 36015G25KT 6000 -SHRA BKN050
BECMG 2801/2802 36009KT 9999 BKN025 QNH3009INS
BECMG 2806/2807 VRB06KT 6000 BR SCT015 BKN025 QNH3012INS
TEMPO 2810/2814 BKN015
BECMG 2813/2814 35006KT 9999 SCT030 BKN060 QNH3008INS
TEMPO 2817/2819 01012G18KT 8000 -SHRA BKN040 TX31/2720Z TN22/2713Z



MET'MAP, your aeronautical weather chart ! - Copyright ORBIFLY December 2007 - Disclaimer

ORBIFLY MET'MAP TEAM :

Programming & Development : Alexandra Zaïnal
Concept & original design : Baudouin d'Aumeries
Assistance for programming : Marc-Olivier Méhu
Technical & hardware support : Manuel Goepfert

Contact : metmap@orbifly.com




SOURCES & CREDITS :

   NOAA       Earth
Advisory